createdAt,value
2023-01-05T00:00:44.189Z,99287.50
2023-01-05T00:03:18.396Z,99293.41
2023-01-05T00:05:51.601Z,99286.09
2023-01-05T00:08:24.731Z,99275.38
2023-01-05T00:11:14.931Z,99277.81
2023-01-05T00:14:05.171Z,99274.63
2023-01-05T00:16:55.409Z,99277.66
2023-01-05T00:19:47.254Z,99265.38
2023-01-05T00:22:34.941Z,99266.00
2023-01-05T00:25:12.401Z,99268.78
2023-01-05T00:27:48.132Z,99265.81
2023-01-05T00:30:22.843Z,99255.63
2023-01-05T00:32:55.828Z,99266.66
2023-01-05T00:35:30.737Z,99252.66
2023-01-05T00:38:03.504Z,99252.47
2023-01-05T00:40:36.999Z,99242.47
2023-01-05T00:43:09.814Z,99235.81
2023-01-05T00:45:42.643Z,99243.00
2023-01-05T00:48:15.413Z,99242.00
2023-01-05T00:50:51.871Z,99245.91
2023-01-05T00:53:24.651Z,99230.34
2023-01-05T00:55:58.121Z,99232.00
2023-01-05T00:58:31.359Z,99237.22
2023-01-05T01:01:10.286Z,99227.25
2023-01-05T01:03:43.158Z,99237.44
2023-01-05T01:06:18.769Z,99228.22
2023-01-05T01:08:52.004Z,99217.31
2023-01-05T01:11:24.786Z,99219.78
2023-01-05T01:13:57.785Z,99218.13
2023-01-05T01:16:30.578Z,99216.19
2023-01-05T01:19:05.576Z,99203.22
2023-01-05T01:21:40.107Z,99218.81
2023-01-05T01:24:17.201Z,99198.47
2023-01-05T01:26:50.511Z,99209.16
2023-01-05T01:29:24.428Z,99216.69
2023-01-05T01:31:57.826Z,99221.06
2023-01-05T01:34:30.740Z,99205.16
2023-01-05T01:37:05.750Z,99218.19
2023-01-05T01:39:44.469Z,99201.78
2023-01-05T01:42:19.400Z,99201.63
2023-01-05T01:45:02.317Z,99209.16
2023-01-05T01:47:44.998Z,99207.28
2023-01-05T01:50:23.870Z,99207.75
2023-01-05T01:53:03.985Z,99205.78
2023-01-05T01:55:37.970Z,99210.19
2023-01-05T01:58:14.235Z,99216.63
2023-01-05T02:00:48.816Z,99200.84
2023-01-05T02:03:21.802Z,99208.88
2023-01-05T02:05:54.777Z,99203.72
2023-01-05T02:08:32.283Z,99200.56
2023-01-05T02:11:23.963Z,99202.84
2023-01-05T02:14:12.741Z,99212.38
2023-01-05T02:16:58.390Z,99222.75
2023-01-05T02:20:00.871Z,99212.38
2023-01-05T02:23:05.865Z,99200.00
2023-01-05T02:26:04.329Z,99196.56
2023-01-05T02:28:52.131Z,99177.56
2023-01-05T02:31:32.106Z,99174.88
2023-01-05T02:34:16.957Z,99168.91
2023-01-05T02:36:55.836Z,99155.56
2023-01-05T02:39:34.047Z,99173.63
2023-01-05T02:42:14.649Z,99164.38
2023-01-05T02:44:48.854Z,99164.38
2023-01-05T02:47:44.739Z,99153.16
2023-01-05T02:50:23.409Z,99157.44
2023-01-05T02:53:01.911Z,99160.59
2023-01-05T02:55:38.900Z,99164.53
2023-01-05T02:58:13.820Z,99173.75
2023-01-05T03:00:53.138Z,99182.94
2023-01-05T03:03:34.270Z,99178.78
2023-01-05T03:06:12.874Z,99163.31
2023-01-05T03:08:50.762Z,99179.69
2023-01-05T03:11:50.072Z,99188.53
2023-01-05T03:14:29.476Z,99179.84
2023-01-05T03:17:04.097Z,99184.44
2023-01-05T03:19:44.034Z,99186.91
2023-01-05T03:22:39.757Z,99187.59
2023-01-05T03:25:33.491Z,99180.13
2023-01-05T03:28:29.525Z,99173.50
2023-01-05T03:31:25.517Z,99161.81
2023-01-05T03:34:21.316Z,99155.44
2023-01-05T03:37:01.214Z,99151.19
2023-01-05T03:39:36.746Z,99152.84
2023-01-05T03:42:16.279Z,99147.00
2023-01-05T03:44:50.984Z,99145.00
2023-01-05T03:47:24.633Z,99140.66
2023-01-05T03:49:58.037Z,99140.53
2023-01-05T03:52:32.410Z,99136.59
2023-01-05T03:55:07.271Z,99135.84
2023-01-05T03:57:40.100Z,99127.41
2023-01-05T04:00:17.746Z,99126.72
2023-01-05T04:03:01.270Z,99126.31
2023-01-05T04:05:34.888Z,99131.50
2023-01-05T04:08:11.254Z,99134.19
2023-01-05T04:10:44.847Z,99137.13
2023-01-05T04:13:19.490Z,99132.28
2023-01-05T04:15:52.766Z,99131.13
2023-01-05T04:18:25.664Z,99141.22
2023-01-05T04:20:59.146Z,99144.72
2023-01-05T04:23:33.696Z,99145.94
2023-01-05T04:26:06.782Z,99142.34
2023-01-05T04:28:39.889Z,99154.31
2023-01-05T04:31:15.415Z,99139.88
2023-01-05T04:33:50.297Z,99143.94
2023-01-05T04:36:25.989Z,99155.38
2023-01-05T04:39:03.103Z,99162.59
2023-01-05T04:41:36.800Z,99164.25
2023-01-05T04:44:09.782Z,99169.34
2023-01-05T04:46:42.757Z,99167.81
2023-01-05T04:49:17.307Z,99177.84
2023-01-05T04:51:53.531Z,99178.38
2023-01-05T04:54:30.075Z,99191.13
2023-01-05T04:57:04.212Z,99193.56
2023-01-05T04:59:37.043Z,99190.50
2023-01-05T05:02:11.946Z,99194.19
2023-01-05T05:04:49.742Z,99204.13
2023-01-05T05:07:23.736Z,99203.69
2023-01-05T05:09:58.338Z,99207.81
2023-01-05T05:12:31.206Z,99220.81
2023-01-05T05:15:04.679Z,99216.75
2023-01-05T05:17:37.541Z,99215.34
2023-01-05T05:20:11.968Z,99230.13
2023-01-05T05:22:45.003Z,99234.97
2023-01-05T05:25:22.825Z,99229.03
2023-01-05T05:27:56.475Z,99248.81
2023-01-05T05:30:29.367Z,99262.75
2023-01-05T05:33:02.184Z,99275.06
2023-01-05T05:35:34.926Z,99277.47
2023-01-05T05:38:07.817Z,99299.50
2023-01-05T05:40:42.016Z,99304.28
2023-01-05T05:43:15.072Z,99321.94
2023-01-05T05:45:50.710Z,99322.34
2023-01-05T05:48:23.919Z,99331.09
2023-01-05T05:50:56.752Z,99334.72
2023-01-05T05:53:29.558Z,99332.72
2023-01-05T05:56:03.732Z,99344.31
2023-01-05T05:58:36.558Z,99354.38
2023-01-05T06:01:09.769Z,99356.69
2023-01-05T06:03:42.566Z,99358.31
2023-01-05T06:06:15.283Z,99367.50
2023-01-05T06:08:48.160Z,99376.66
2023-01-05T06:11:22.277Z,99370.28
2023-01-05T06:13:55.272Z,99373.03
2023-01-05T06:16:28.063Z,99369.94
2023-01-05T06:19:00.863Z,99369.56
2023-01-05T06:21:33.617Z,99376.75
2023-01-05T06:24:07.031Z,99372.88
2023-01-05T06:26:41.145Z,99367.00
2023-01-05T06:29:13.932Z,99373.47
2023-01-05T06:31:46.746Z,99371.25
2023-01-05T06:34:19.529Z,99368.16
2023-01-05T06:36:52.286Z,99361.84
2023-01-05T06:39:25.055Z,99374.09
2023-01-05T06:41:59.159Z,99369.31
2023-01-05T06:44:34.081Z,99382.31
2023-01-05T06:47:06.791Z,99385.13
2023-01-05T06:49:39.607Z,99385.56
2023-01-05T06:52:16.620Z,99390.72
2023-01-05T06:54:49.702Z,99384.34
2023-01-05T06:57:25.023Z,99390.34
2023-01-05T06:59:57.960Z,99389.56
2023-01-05T07:02:30.840Z,99390.69
2023-01-05T07:05:03.884Z,99400.69
2023-01-05T07:07:37.605Z,99391.84
2023-01-05T07:10:11.037Z,99395.09
2023-01-05T07:12:45.199Z,99400.25
2023-01-05T07:15:18.187Z,99399.88
2023-01-05T07:17:51.052Z,99412.16
2023-01-05T07:20:23.952Z,99411.25
2023-01-05T07:22:56.835Z,99416.47
2023-01-05T07:25:31.647Z,99415.56
2023-01-05T07:28:06.479Z,99410.09
2023-01-05T07:30:39.542Z,99407.69
2023-01-05T07:33:12.278Z,99418.03
2023-01-05T07:35:45.178Z,99431.22
2023-01-05T07:38:18.214Z,99430.06
2023-01-05T07:40:51.029Z,99432.84
2023-01-05T07:43:25.119Z,99426.94
2023-01-05T07:45:59.588Z,99430.09
2023-01-05T07:48:32.431Z,99436.47
2023-01-05T07:51:06.703Z,99441.97
2023-01-05T07:53:44.208Z,99455.53
2023-01-05T07:56:17.542Z,99454.25
2023-01-05T07:58:51.640Z,99459.81
2023-01-05T08:01:24.541Z,99456.69
2023-01-05T08:03:57.408Z,99466.22
2023-01-05T08:06:30.165Z,99464.13
2023-01-05T08:09:22.953Z,99467.41
2023-01-05T08:11:55.745Z,99468.63
2023-01-05T08:14:29.953Z,99465.84
2023-01-05T08:17:02.844Z,99475.41
2023-01-05T08:19:35.648Z,99479.38
2023-01-05T08:22:08.432Z,99471.00
2023-01-05T08:24:43.546Z,99480.16
2023-01-05T08:27:16.359Z,99485.72
2023-01-05T08:29:50.477Z,99484.09
2023-01-05T08:32:23.259Z,99496.00
2023-01-05T08:34:56.020Z,99494.72
2023-01-05T08:37:28.756Z,99496.00
2023-01-05T08:40:01.825Z,99491.94
2023-01-05T08:42:34.871Z,99494.38
2023-01-05T08:46:14.418Z,99498.78
2023-01-05T08:55:06.423Z,99525.38
2023-01-05T09:02:31.869Z,99531.72
2023-01-05T09:05:07.001Z,99532.06
2023-01-05T09:07:39.774Z,99542.78
2023-01-05T09:10:13.117Z,99532.41
2023-01-05T09:12:48.220Z,99540.34
2023-01-05T09:15:20.991Z,99548.66
2023-01-05T09:17:53.837Z,99543.41
2023-01-05T09:20:27.946Z,99551.31
2023-01-05T09:23:00.785Z,99545.09
2023-01-05T09:25:33.788Z,99557.00
2023-01-05T09:28:06.601Z,99563.38
2023-01-05T09:30:44.369Z,99557.84
2023-01-05T09:33:18.790Z,99557.78
2023-01-05T09:35:56.694Z,99567.16
2023-01-05T09:38:29.723Z,99572.91
2023-01-05T09:41:10.108Z,99574.09
2023-01-05T09:43:44.721Z,99578.56
2023-01-05T09:46:19.595Z,99585.25
2023-01-05T09:48:56.923Z,99577.72
2023-01-05T09:51:34.631Z,99585.75
2023-01-05T09:54:16.040Z,99580.56
2023-01-05T09:59:46.376Z,99580.16
2023-01-05T10:02:25.364Z,99577.25
2023-01-05T10:05:00.685Z,99586.88
2023-01-05T10:07:43.075Z,99577.25
2023-01-05T10:10:30.747Z,99586.78
2023-01-05T10:13:07.132Z,99587.91
2023-01-05T10:15:45.899Z,99590.25
2023-01-05T10:18:22.182Z,99583.84
2023-01-05T10:21:07.618Z,99588.72
2023-01-05T10:23:57.061Z,99583.97
2023-01-05T10:27:13.971Z,99583.06
2023-01-05T10:29:35.030Z,99588.88
2023-01-05T10:32:18.419Z,99592.63
2023-01-05T10:34:58.615Z,99590.31
2023-01-05T10:37:48.199Z,99586.22
2023-01-05T10:40:32.169Z,99596.22
2023-01-05T10:43:23.825Z,99579.47
2023-01-05T10:46:29.816Z,99580.25
2023-01-05T10:48:50.678Z,99576.16
2023-01-05T10:51:24.398Z,99588.03
2023-01-05T10:53:57.988Z,99595.22
2023-01-05T10:56:34.542Z,99592.50
2023-01-05T10:59:10.296Z,99588.13
2023-01-05T11:01:46.015Z,99593.88
2023-01-05T11:04:37.024Z,99599.06
2023-01-05T11:07:09.911Z,99598.34
2023-01-05T11:09:44.362Z,99600.44
2023-01-05T11:12:21.307Z,99607.69
2023-01-05T11:14:58.787Z,99597.78
2023-01-05T11:17:40.086Z,99602.09
2023-01-05T11:20:17.929Z,99597.94
2023-01-05T11:22:51.299Z,99607.59
2023-01-05T11:25:29.264Z,99601.81
2023-01-05T11:28:15.968Z,99604.50
2023-01-05T11:34:47.200Z,99609.91
2023-01-05T11:37:25.670Z,99612.59
2023-01-05T11:40:00.746Z,99615.91
2023-01-05T11:42:36.343Z,99612.50
2023-01-05T11:45:20.711Z,99608.97
2023-01-05T11:47:56.330Z,99606.66
2023-01-05T11:50:32.489Z,99622.75
2023-01-05T11:53:05.284Z,99616.19
2023-01-05T11:55:39.973Z,99621.94
2023-01-05T11:58:25.644Z,99616.59
2023-01-05T12:01:16.990Z,99615.47
2023-01-05T12:04:13.718Z,99612.28
2023-01-05T12:06:58.123Z,99618.19
2023-01-05T12:09:35.162Z,99619.88
2023-01-05T12:12:22.601Z,99611.16
2023-01-05T12:15:24.306Z,99612.97
2023-01-05T12:18:11.300Z,99615.75
2023-01-05T12:20:58.069Z,99616.75
2023-01-05T12:23:45.900Z,99609.81
2023-01-05T12:26:24.548Z,99618.66
2023-01-05T12:35:58.839Z,99623.94
2023-01-05T12:38:47.664Z,99634.78
2023-01-05T12:41:41.007Z,99629.94
2023-01-05T12:44:42.355Z,99636.25
2023-01-05T12:47:33.861Z,99628.88
2023-01-05T12:50:21.904Z,99636.69
2023-01-05T12:53:03.190Z,99631.84
2023-01-05T12:55:41.631Z,99632.97
2023-01-05T12:58:18.374Z,99640.75
2023-01-05T13:00:53.275Z,99637.25
2023-01-05T13:03:31.521Z,99635.44
2023-01-05T13:06:09.871Z,99635.81
2023-01-05T13:08:49.910Z,99627.31
2023-01-05T13:11:28.502Z,99626.31
2023-01-05T13:14:06.311Z,99621.53
2023-01-05T13:16:41.579Z,99625.50
2023-01-05T13:19:21.617Z,99621.53
2023-01-05T13:21:56.348Z,99626.28
2023-01-05T13:24:36.535Z,99620.16
2023-01-05T13:27:11.866Z,99606.34
2023-01-05T13:29:50.050Z,99609.56
2023-01-05T13:32:38.132Z,99616.84
2023-01-05T13:35:25.014Z,99619.16
2023-01-05T13:38:21.343Z,99619.56
2023-01-05T13:41:13.875Z,99624.91
2023-01-05T13:44:15.731Z,99621.41
2023-01-05T13:47:00.538Z,99612.59
2023-01-05T13:50:08.676Z,99622.06
2023-01-05T13:52:57.686Z,99629.53
2023-01-05T13:55:33.588Z,99634.28
2023-01-05T13:58:29.999Z,99634.97
2023-01-05T14:01:04.729Z,99627.06
2023-01-05T14:03:40.097Z,99625.63
2023-01-05T14:06:19.780Z,99638.84
2023-01-05T14:09:00.173Z,99645.31
2023-01-05T14:11:32.941Z,99640.09
2023-01-05T14:14:27.306Z,99643.78
2023-01-05T14:17:00.139Z,99644.00
2023-01-05T14:19:52.805Z,99660.19
2023-01-05T14:22:38.479Z,99649.69
2023-01-05T14:25:47.969Z,99658.25
2023-01-05T14:28:24.692Z,99651.44
2023-01-05T14:31:37.840Z,99655.78
2023-01-05T14:34:19.695Z,99652.59
2023-01-05T14:37:05.812Z,99673.13
2023-01-05T14:39:44.109Z,99661.69
2023-01-05T14:42:21.916Z,99680.19
2023-01-05T14:45:00.615Z,99673.41
2023-01-05T14:47:39.350Z,99693.75
2023-01-05T14:50:33.859Z,99689.75
2023-01-05T14:53:14.397Z,99692.59
2023-01-05T14:56:03.359Z,99701.31
2023-01-05T14:59:10.150Z,99703.53
2023-01-05T15:01:49.967Z,99706.09
2023-01-05T15:04:29.065Z,99710.88
2023-01-05T15:07:19.453Z,99710.28
2023-01-05T15:10:14.590Z,99710.31
2023-01-05T15:13:03.345Z,99708.88
2023-01-05T15:15:44.978Z,99710.53
2023-01-05T15:18:50.006Z,99717.41
2023-01-05T15:21:50.164Z,99727.03
2023-01-05T15:24:58.751Z,99730.63
2023-01-05T15:27:49.112Z,99729.03
2023-01-05T15:30:42.457Z,99721.56
2023-01-05T15:33:20.248Z,99726.50
2023-01-05T15:35:56.679Z,99735.44
2023-01-05T15:38:31.918Z,99720.81
2023-01-05T15:41:09.141Z,99724.06
2023-01-05T15:43:43.558Z,99737.69
2023-01-05T15:46:20.433Z,99733.25
2023-01-05T15:48:55.208Z,99732.94
2023-01-05T15:51:30.643Z,99733.06
2023-01-05T15:54:05.693Z,99735.88
2023-01-05T15:56:41.235Z,99737.06
2023-01-05T15:59:23.729Z,99736.34
2023-01-05T16:01:56.785Z,99737.53
2023-01-05T16:04:29.644Z,99733.59
2023-01-05T16:07:05.692Z,99738.81
2023-01-05T16:09:41.282Z,99737.16
2023-01-05T16:12:23.338Z,99755.94
2023-01-05T16:15:01.626Z,99749.59
2023-01-05T16:17:37.242Z,99754.44
2023-01-05T16:20:16.228Z,99754.72
2023-01-05T16:22:57.989Z,99756.44
2023-01-05T16:25:40.604Z,99760.41
2023-01-05T16:28:18.339Z,99754.06
2023-01-05T16:30:53.145Z,99751.78
2023-01-05T16:33:34.791Z,99749.38
2023-01-05T16:36:12.412Z,99761.03
2023-01-05T16:38:45.881Z,99756.56
2023-01-05T16:41:26.473Z,99765.91
2023-01-05T16:44:02.066Z,99761.97
2023-01-05T16:46:41.148Z,99761.97
2023-01-05T16:49:33.058Z,99765.16
2023-01-05T16:52:10.155Z,99765.53
2023-01-05T16:54:45.086Z,99760.84
2023-01-05T16:57:42.918Z,99767.69
2023-01-05T17:00:40.107Z,99768.44
2023-01-05T17:03:31.421Z,99763.28
2023-01-05T17:06:05.597Z,99763.72
2023-01-05T17:08:40.752Z,99763.38
2023-01-05T17:11:14.555Z,99754.66
2023-01-05T17:13:55.738Z,99758.63
2023-01-05T17:16:29.178Z,99758.63
2023-01-05T17:19:02.622Z,99756.66
2023-01-05T17:24:15.393Z,99755.88
2023-01-05T17:26:48.719Z,99753.88
2023-01-05T17:29:25.427Z,99759.84
2023-01-05T17:31:59.411Z,99766.63
2023-01-05T17:34:32.748Z,99769.38
2023-01-05T17:37:05.806Z,99765.84
2023-01-05T17:39:39.069Z,99767.84
2023-01-05T17:42:30.096Z,99774.19
2023-01-05T17:45:05.117Z,99774.19
2023-01-05T17:47:38.420Z,99774.59
2023-01-05T17:50:49.033Z,99766.22
2023-01-05T17:57:44.036Z,99776.22
2023-01-05T18:00:22.147Z,99777.72
2023-01-05T18:02:56.384Z,99772.63
2023-01-05T18:05:30.009Z,99774.59
2023-01-05T18:08:02.824Z,99764.28
2023-01-05T18:10:37.235Z,99767.06
2023-01-05T18:13:10.860Z,99769.09
2023-01-05T18:15:46.896Z,99765.13
2023-01-05T18:18:21.411Z,99769.84
2023-01-05T18:20:54.469Z,99771.47
2023-01-05T18:23:27.605Z,99774.22
2023-01-05T18:26:03.369Z,99781.78
2023-01-05T18:28:36.858Z,99784.97
2023-01-05T18:31:12.883Z,99786.50
2023-01-05T18:33:45.678Z,99786.09
2023-01-05T18:36:18.838Z,99782.97
2023-01-05T18:38:51.597Z,99780.16
2023-01-05T18:41:25.194Z,99775.78
2023-01-05T18:43:57.963Z,99784.13
2023-01-05T18:46:32.183Z,99775.00
2023-01-05T18:49:05.807Z,99780.97
2023-01-05T18:51:38.593Z,99791.31
2023-01-05T18:54:12.896Z,99777.78
2023-01-05T18:56:45.880Z,99782.50
2023-01-05T18:59:19.288Z,99772.59
2023-01-05T19:01:53.678Z,99782.16
2023-01-05T19:04:27.610Z,99783.34
2023-01-05T19:07:00.489Z,99778.94
2023-01-05T19:09:33.526Z,99772.19
2023-01-05T19:12:07.393Z,99773.78
2023-01-05T19:14:40.431Z,99775.34
2023-01-05T19:17:14.534Z,99773.34
2023-01-05T19:19:48.317Z,99777.78
2023-01-05T19:22:21.075Z,99777.75
2023-01-05T19:24:53.936Z,99779.38
2023-01-05T19:27:27.950Z,99778.59
2023-01-05T19:30:00.709Z,99777.38
2023-01-05T19:32:36.758Z,99778.59
2023-01-05T19:35:10.038Z,99771.84
2023-01-05T19:37:43.334Z,99775.00
2023-01-05T19:40:16.292Z,99778.16
2023-01-05T19:42:49.067Z,99782.91
2023-01-05T19:45:21.894Z,99784.56
2023-01-05T19:47:56.217Z,99789.69
2023-01-05T19:50:29.584Z,99786.50
2023-01-05T19:53:02.800Z,99786.91
2023-01-05T19:55:39.787Z,99796.06
2023-01-05T19:58:12.802Z,99792.06
2023-01-05T20:00:45.664Z,99792.50
2023-01-05T20:03:19.762Z,99792.13
2023-01-05T20:05:52.548Z,99799.25
2023-01-05T20:08:25.300Z,99795.22
2023-01-05T20:10:58.123Z,99791.25
2023-01-05T20:13:30.863Z,99776.56
2023-01-05T20:16:04.960Z,99778.19
2023-01-05T20:18:40.339Z,99778.59
2023-01-05T20:21:13.595Z,99769.84
2023-01-05T20:23:46.323Z,99772.25
2023-01-05T20:26:21.286Z,99775.41
2023-01-05T20:28:55.611Z,99790.91
2023-01-05T20:31:30.914Z,99794.88
2023-01-05T20:34:10.070Z,99788.88
2023-01-05T20:36:43.265Z,99789.63
2023-01-05T20:39:18.669Z,99793.59
2023-01-05T20:41:54.048Z,99799.16
2023-01-05T20:44:28.196Z,99805.56
2023-01-05T20:47:03.060Z,99788.78
2023-01-05T20:49:38.819Z,99802.75
2023-01-05T20:52:11.921Z,99796.38
2023-01-05T20:54:44.847Z,99795.97
2023-01-05T20:57:17.632Z,99804.00
2023-01-05T20:59:50.483Z,99795.56
2023-01-05T21:02:24.746Z,99792.72
2023-01-05T21:04:59.020Z,99793.75
2023-01-05T21:07:31.780Z,99800.22
2023-01-05T21:10:04.901Z,99802.56
2023-01-05T21:12:37.707Z,99789.47
2023-01-05T21:15:12.057Z,99789.91
2023-01-05T21:17:45.145Z,99791.19
2023-01-05T21:20:19.395Z,99791.09
2023-01-05T21:22:53.117Z,99798.22
2023-01-05T21:25:25.914Z,99794.28
2023-01-05T21:27:58.688Z,99804.56
2023-01-05T21:30:31.451Z,99798.22
2023-01-05T21:33:04.647Z,99799.41
2023-01-05T21:35:40.391Z,99799.81
2023-01-05T21:38:13.832Z,99801.44
2023-01-05T21:40:47.039Z,99797.13
2023-01-05T21:43:19.815Z,99793.41
2023-01-05T21:45:52.630Z,99791.75
2023-01-05T21:48:25.464Z,99786.00
2023-01-05T21:51:17.967Z,99784.41
2023-01-05T21:54:08.883Z,99778.88
2023-01-05T21:56:44.467Z,99773.31
2023-01-05T21:59:17.338Z,99769.69
2023-01-05T22:01:50.214Z,99762.19
2023-01-05T22:04:23.431Z,99754.25
2023-01-05T22:06:57.635Z,99756.19
2023-01-05T22:09:30.385Z,99749.41
2023-01-05T22:12:03.350Z,99746.22
2023-01-05T22:14:37.666Z,99739.44
2023-01-05T22:17:10.557Z,99743.44
2023-01-05T22:19:43.365Z,99735.03
2023-01-05T22:22:17.554Z,99736.94
2023-01-05T22:24:50.282Z,99743.75
2023-01-05T22:27:23.115Z,99738.13
2023-01-05T22:29:55.985Z,99749.69
2023-01-05T22:32:28.936Z,99744.97
2023-01-05T22:35:01.704Z,99746.19
2023-01-05T22:37:36.022Z,99743.41
2023-01-05T22:40:10.478Z,99731.13
2023-01-05T22:42:43.356Z,99722.69
2023-01-05T22:45:16.973Z,99732.66
2023-01-05T22:47:50.032Z,99731.84
2023-01-05T22:50:22.837Z,99730.25
2023-01-05T22:52:56.959Z,99727.13
2023-01-05T22:55:30.817Z,99725.09
2023-01-05T22:58:03.944Z,99717.56
2023-01-05T23:00:37.004Z,99712.72
2023-01-05T23:03:09.901Z,99709.59
2023-01-05T23:05:42.718Z,99710.03
2023-01-05T23:08:17.021Z,99709.97
2023-01-05T23:10:50.499Z,99709.22
2023-01-05T23:13:23.485Z,99713.22
2023-01-05T23:15:59.005Z,99702.75
2023-01-05T23:18:32.885Z,99697.22
2023-01-05T23:21:08.043Z,99694.47
2023-01-05T23:23:42.761Z,99688.31
2023-01-05T23:26:17.315Z,99680.44
2023-01-05T23:28:50.762Z,99676.75
2023-01-05T23:31:24.480Z,99676.38
2023-01-05T23:33:58.346Z,99675.19
2023-01-05T23:36:31.377Z,99678.84
2023-01-05T23:39:06.590Z,99669.13
2023-01-05T23:41:39.457Z,99671.28
2023-01-05T23:44:14.091Z,99669.94
2023-01-05T23:46:46.880Z,99657.56
2023-01-05T23:49:19.731Z,99663.19
2023-01-05T23:51:52.579Z,99658.44
2023-01-05T23:54:26.721Z,99648.00
2023-01-05T23:56:59.518Z,99647.38
2023-01-05T23:59:32.383Z,99652.50
